createdAt,value
2022-11-09T00:00:55.841Z,96360.94
2022-11-09T00:03:33.800Z,96362.56
2022-11-09T00:06:19.935Z,96362.56
2022-11-09T00:09:08.207Z,96358.94
2022-11-09T00:12:02.714Z,96362.22
2022-11-09T00:14:51.769Z,96363.00
2022-11-09T00:20:47.682Z,96358.56
2022-11-09T00:23:26.652Z,96350.31
2022-11-09T00:26:08.791Z,96349.88
2022-11-09T00:28:52.202Z,96352.91
2022-11-09T00:34:44.324Z,96362.56
2022-11-09T00:37:37.992Z,96361.72
2022-11-09T00:40:28.753Z,96356.50
2022-11-09T00:43:29.833Z,96354.72
2022-11-09T00:46:14.009Z,96360.75
2022-11-09T00:48:54.987Z,96366.94
2022-11-09T00:54:43.921Z,96349.88
2022-11-09T00:57:51.376Z,96361.75
2022-11-09T01:00:56.413Z,96352.13
2022-11-09T01:03:41.173Z,96348.50
2022-11-09T01:06:28.949Z,96344.91
2022-11-09T01:09:09.164Z,96342.91
2022-11-09T01:11:44.360Z,96344.72
2022-11-09T01:14:23.188Z,96352.56
2022-11-09T01:17:08.687Z,96355.16
2022-11-09T01:19:43.256Z,96346.13
2022-11-09T01:22:49.015Z,96346.72
2022-11-09T01:25:31.194Z,96343.94
2022-11-09T01:28:06.299Z,96346.34
2022-11-09T01:30:55.413Z,96345.34
2022-11-09T01:36:44.396Z,96358.03
2022-11-09T01:39:22.240Z,96349.38
2022-11-09T01:42:03.539Z,96353.97
2022-11-09T01:45:25.514Z,96345.34
2022-11-09T01:48:18.305Z,96334.50
2022-11-09T01:51:09.731Z,96344.13
2022-11-09T01:53:57.622Z,96338.88
2022-11-09T01:56:49.158Z,96346.72
2022-11-09T01:59:55.921Z,96347.75
2022-11-09T02:02:51.165Z,96341.72
2022-11-09T02:05:55.392Z,96342.91
2022-11-09T02:08:48.982Z,96344.28
2022-11-09T02:14:37.404Z,96332.81
2022-11-09T02:17:20.836Z,96332.19
2022-11-09T02:20:21.150Z,96334.81
2022-11-09T02:23:08.460Z,96326.38
2022-11-09T02:26:05.931Z,96320.34
2022-11-09T02:28:55.127Z,96319.13
2022-11-09T02:31:35.997Z,96316.28
2022-11-09T02:37:37.265Z,96304.19
2022-11-09T02:40:23.439Z,96311.41
2022-11-09T02:42:57.892Z,96320.63
2022-11-09T02:45:46.133Z,96305.38
2022-11-09T02:51:32.215Z,96313.59
2022-11-09T02:54:30.390Z,96313.38
2022-11-09T02:57:09.812Z,96303.16
2022-11-09T02:59:56.952Z,96303.53
2022-11-09T03:03:17.512Z,96319.19
2022-11-09T03:05:51.860Z,96309.16
2022-11-09T03:08:19.415Z,96307.75
2022-11-09T03:10:47.162Z,96319.97
2022-11-09T03:13:16.091Z,96323.59
2022-11-09T03:15:43.669Z,96326.22
2022-11-09T03:18:11.191Z,96319.34
2022-11-09T03:20:38.746Z,96322.97
2022-11-09T03:23:06.295Z,96324.00
2022-11-09T03:25:33.780Z,96334.63
2022-11-09T03:28:02.934Z,96327.59
2022-11-09T03:30:32.508Z,96327.19
2022-11-09T03:33:00.424Z,96333.25
2022-11-09T03:35:28.163Z,96333.84
2022-11-09T03:37:55.754Z,96328.63
2022-11-09T03:40:23.397Z,96331.03
2022-11-09T03:42:50.902Z,96329.25
2022-11-09T03:45:18.437Z,96333.28
2022-11-09T03:47:48.500Z,96334.69
2022-11-09T03:50:18.131Z,96333.50
2022-11-09T03:52:46.457Z,96334.28
2022-11-09T03:55:15.837Z,96330.47
2022-11-09T03:57:45.509Z,96335.31
2022-11-09T04:00:15.976Z,96336.94
2022-11-09T04:02:43.514Z,96337.53
2022-11-09T04:05:12.660Z,96343.00
2022-11-09T04:07:40.768Z,96355.66
2022-11-09T04:10:10.157Z,96351.06
2022-11-09T04:12:37.661Z,96353.28
2022-11-09T04:15:05.863Z,96358.13
2022-11-09T04:17:33.350Z,96368.19
2022-11-09T04:20:00.894Z,96384.28
2022-11-09T04:22:29.780Z,96392.38
2022-11-09T04:24:57.303Z,96398.81
2022-11-09T04:27:24.824Z,96400.06
2022-11-09T04:29:52.534Z,96412.53
2022-11-09T04:32:20.081Z,96404.28
2022-11-09T04:34:47.610Z,96407.50
2022-11-09T04:37:15.177Z,96412.56
2022-11-09T04:39:44.022Z,96417.00
2022-11-09T04:42:11.503Z,96417.59
2022-11-09T04:44:38.958Z,96408.75
2022-11-09T04:47:06.660Z,96412.75
2022-11-09T04:49:34.166Z,96413.38
2022-11-09T04:52:01.660Z,96421.22
2022-11-09T04:54:29.132Z,96423.66
2022-11-09T04:56:58.164Z,96439.94
2022-11-09T04:59:25.692Z,96425.06
2022-11-09T05:01:53.220Z,96436.31
2022-11-09T05:04:20.812Z,96429.50
2022-11-09T05:06:48.438Z,96432.72
2022-11-09T05:09:16.004Z,96433.53
2022-11-09T05:11:43.581Z,96453.44
2022-11-09T05:14:12.449Z,96458.47
2022-11-09T05:16:39.959Z,96463.31
2022-11-09T05:19:07.543Z,96458.91
2022-11-09T05:21:35.034Z,96458.72
2022-11-09T05:24:02.944Z,96467.34
2022-11-09T05:26:32.116Z,96465.53
2022-11-09T05:29:00.092Z,96464.56
2022-11-09T05:31:29.464Z,96463.53
2022-11-09T05:33:57.255Z,96448.84
2022-11-09T05:36:25.015Z,96444.25
2022-11-09T05:38:52.758Z,96446.84
2022-11-09T05:41:20.762Z,96446.84
2022-11-09T05:43:48.261Z,96454.88
2022-11-09T05:46:17.562Z,96461.72
2022-11-09T05:48:47.078Z,96460.13
2022-11-09T05:51:16.037Z,96460.91
2022-11-09T05:53:46.428Z,96460.91
2022-11-09T05:56:15.480Z,96458.72
2022-11-09T05:58:43.505Z,96462.53
2022-11-09T06:01:13.282Z,96447.41
2022-11-09T06:03:42.041Z,96453.63
2022-11-09T06:06:13.122Z,96456.81
2022-11-09T06:08:41.861Z,96454.56
2022-11-09T06:11:11.332Z,96449.13
2022-11-09T06:13:38.998Z,96452.53
2022-11-09T06:16:07.529Z,96449.69
2022-11-09T06:18:37.343Z,96451.88
2022-11-09T06:21:06.341Z,96439.75
2022-11-09T06:23:35.187Z,96432.06
2022-11-09T06:26:06.540Z,96440.06
2022-11-09T06:28:34.637Z,96429.56
2022-11-09T06:31:03.552Z,96439.97
2022-11-09T06:33:32.286Z,96424.66
2022-11-09T06:36:00.315Z,96426.59
2022-11-09T06:38:28.021Z,96428.16
2022-11-09T06:40:59.551Z,96427.72
2022-11-09T06:43:27.390Z,96432.34
2022-11-09T06:45:55.090Z,96436.56
2022-11-09T06:48:22.941Z,96443.38
2022-11-09T06:50:50.608Z,96442.41
2022-11-09T06:53:19.084Z,96455.91
2022-11-09T06:55:50.575Z,96462.72
2022-11-09T06:58:20.720Z,96464.75
2022-11-09T07:00:48.376Z,96473.03
2022-11-09T07:03:17.654Z,96473.66
2022-11-09T07:05:46.106Z,96468.03
2022-11-09T07:08:14.751Z,96473.69
2022-11-09T07:10:42.707Z,96470.91
2022-11-09T07:13:11.338Z,96463.66
2022-11-09T07:15:40.640Z,96465.13
2022-11-09T07:18:11.059Z,96467.31
2022-11-09T07:20:38.845Z,96466.94
2022-11-09T07:23:06.357Z,96469.38
2022-11-09T07:25:34.498Z,96463.34
2022-11-09T07:28:05.931Z,96471.00
2022-11-09T07:30:33.475Z,96470.59
2022-11-09T07:33:10.418Z,96471.03
2022-11-09T07:35:38.505Z,96469.84
2022-11-09T07:38:06.182Z,96472.28
2022-11-09T07:40:33.737Z,96478.31
2022-11-09T07:43:01.577Z,96478.69
2022-11-09T07:45:30.057Z,96481.56
2022-11-09T07:47:58.624Z,96485.41
2022-11-09T07:50:29.405Z,96480.44
2022-11-09T07:52:57.784Z,96494.13
2022-11-09T07:55:26.427Z,96500.94
2022-11-09T07:57:56.825Z,96493.72
2022-11-09T08:00:24.568Z,96496.97
2022-11-09T08:02:52.108Z,96503.41
2022-11-09T08:05:19.731Z,96506.84
2022-11-09T08:07:48.754Z,96499.81
2022-11-09T08:10:16.907Z,96507.44
2022-11-09T08:12:44.412Z,96507.88
2022-11-09T08:15:12.255Z,96506.06
2022-11-09T08:17:39.753Z,96505.88
2022-11-09T08:20:08.356Z,96511.72
2022-11-09T08:22:42.147Z,96515.94
2022-11-09T08:25:12.312Z,96510.34
2022-11-09T08:27:40.989Z,96509.94
2022-11-09T08:30:12.496Z,96515.59
2022-11-09T08:32:40.096Z,96516.00
2022-11-09T08:35:10.064Z,96524.09
2022-11-09T08:37:37.790Z,96524.72
2022-11-09T08:40:07.045Z,96526.94
2022-11-09T08:42:35.893Z,96540.63
2022-11-09T08:45:03.440Z,96534.97
2022-11-09T08:47:30.993Z,96547.88
2022-11-09T08:49:58.575Z,96557.16
2022-11-09T08:52:26.091Z,96582.94
2022-11-09T08:54:53.559Z,96577.31
2022-11-09T08:57:21.647Z,96572.69
2022-11-09T08:59:50.474Z,96582.75
2022-11-09T09:02:18.471Z,96590.59
2022-11-09T09:04:46.087Z,96598.44
2022-11-09T09:24:55.495Z,96577.75
2022-11-09T09:33:49.462Z,96580.59
2022-11-09T09:36:21.263Z,96583.81
2022-11-09T09:39:04.218Z,96587.66
2022-11-09T10:24:48.623Z,96535.19
2022-11-09T10:38:46.651Z,96516.69
2022-11-09T10:42:07.575Z,96507.25
2022-11-09T10:49:20.585Z,96493.28
2022-11-09T10:55:51.977Z,96495.16
2022-11-09T11:05:48.675Z,96499.94
2022-11-09T15:09:22.290Z,96520.00
2022-11-09T15:11:50.677Z,96519.63
2022-11-09T15:14:26.268Z,96523.16
2022-11-09T15:17:01.079Z,96523.00
2022-11-09T15:19:31.564Z,96525.50
2022-11-09T15:21:59.778Z,96518.69
2022-11-09T15:24:30.160Z,96527.84
2022-11-09T15:26:58.600Z,96530.94
2022-11-09T15:29:31.294Z,96531.34
2022-11-09T15:32:01.168Z,96532.84
2022-11-09T15:34:33.439Z,96535.88
2022-11-09T15:37:01.165Z,96536.34
2022-11-09T15:39:30.075Z,96535.16
2022-11-09T15:41:57.725Z,96521.63
2022-11-09T15:44:25.244Z,96534.44
2022-11-09T15:46:54.274Z,96529.59
2022-11-09T15:49:25.579Z,96537.13
2022-11-09T15:51:53.548Z,96537.75
2022-11-09T15:54:22.208Z,96534.41
2022-11-09T15:56:51.915Z,96531.41
2022-11-09T15:59:24.454Z,96530.00
2022-11-09T16:01:51.897Z,96537.88
2022-11-09T16:04:19.773Z,96526.84
2022-11-09T16:06:47.324Z,96532.75
2022-11-09T16:09:15.035Z,96537.84
2022-11-09T16:11:42.655Z,96544.75
2022-11-09T16:14:11.483Z,96545.19
2022-11-09T16:16:38.954Z,96545.38
2022-11-09T16:19:06.706Z,96543.00
2022-11-09T16:21:34.239Z,96539.78
2022-11-09T16:24:01.744Z,96539.38
2022-11-09T16:26:29.287Z,96547.13
2022-11-09T16:28:56.757Z,96556.84
2022-11-09T16:31:48.153Z,96559.31
2022-11-09T16:34:13.139Z,96557.53
2022-11-09T16:36:46.446Z,96557.38
2022-11-09T16:39:17.850Z,96557.19
2022-11-09T16:41:47.306Z,96560.69
2022-11-09T16:44:16.836Z,96566.59
2022-11-09T16:46:48.491Z,96566.38
2022-11-09T16:49:16.062Z,96576.28
2022-11-09T16:51:43.597Z,96585.41
2022-11-09T16:54:11.097Z,96583.22
2022-11-09T16:56:38.585Z,96585.84
2022-11-09T16:59:06.219Z,96587.88
2022-11-09T17:01:33.778Z,96598.78
2022-11-09T17:04:02.636Z,96595.78
2022-11-09T17:06:30.233Z,96594.38
2022-11-09T17:08:58.069Z,96598.00
2022-11-09T17:11:25.823Z,96596.41
2022-11-09T17:13:57.348Z,96597.41
2022-11-09T17:16:25.703Z,96614.78
2022-11-09T17:18:54.668Z,96613.75
2022-11-09T17:21:24.512Z,96618.22
2022-11-09T17:23:52.730Z,96618.22
2022-11-09T17:26:21.229Z,96631.16
2022-11-09T17:28:48.972Z,96631.94
2022-11-09T17:31:18.806Z,96630.91
2022-11-09T17:33:46.655Z,96637.19
2022-11-09T17:36:15.953Z,96643.25
2022-11-09T17:38:44.814Z,96649.28
2022-11-09T17:41:14.359Z,96646.66
2022-11-09T17:43:43.221Z,96650.94
2022-11-09T17:46:12.631Z,96652.16
2022-11-09T17:48:41.283Z,96654.38
2022-11-09T17:51:09.682Z,96658.59
2022-11-09T17:53:38.084Z,96661.44
2022-11-09T17:56:09.678Z,96665.88
2022-11-09T17:58:40.364Z,96665.06
2022-11-09T18:01:08.599Z,96667.94
2022-11-09T18:03:37.253Z,96664.47
2022-11-09T18:06:05.649Z,96667.31
2022-11-09T18:08:33.245Z,96672.78
2022-11-09T18:11:00.805Z,96678.03
2022-11-09T18:13:29.618Z,96689.31
2022-11-09T18:15:57.127Z,96684.06
2022-11-09T18:18:25.335Z,96694.56
2022-11-09T18:20:53.480Z,96693.78
2022-11-09T18:23:20.966Z,96699.22
2022-11-09T18:26:00.281Z,96694.16
2022-11-09T18:28:30.040Z,96703.06
2022-11-09T18:31:05.647Z,96699.84
2022-11-09T18:33:33.900Z,96705.09
2022-11-09T18:36:06.887Z,96707.13
2022-11-09T18:38:35.707Z,96697.03
2022-11-09T18:41:05.702Z,96704.31
2022-11-09T18:43:34.804Z,96701.06
2022-11-09T18:46:03.883Z,96703.91
2022-11-09T18:48:31.950Z,96703.09
2022-11-09T18:51:00.616Z,96704.06
2022-11-09T18:53:29.797Z,96708.72
2022-11-09T18:56:06.096Z,96705.50
2022-11-09T18:58:36.213Z,96709.13
2022-11-09T19:01:05.831Z,96702.28
2022-11-09T19:03:33.792Z,96705.09
2022-11-09T19:06:05.344Z,96700.25
2022-11-09T19:08:50.282Z,96705.09
2022-11-09T19:11:17.839Z,96706.72
2022-11-09T19:13:46.752Z,96710.13
2022-11-09T19:16:15.538Z,96708.94
2022-11-09T19:18:43.620Z,96714.59
2022-11-09T19:21:26.960Z,96716.81
2022-11-09T19:23:54.823Z,96713.59
2022-11-09T19:26:23.199Z,96719.22
2022-11-09T19:28:52.084Z,96726.69
2022-11-09T19:31:22.511Z,96731.72
2022-11-09T19:33:49.994Z,96731.53
2022-11-09T19:36:34.308Z,96738.16
2022-11-09T19:39:02.340Z,96738.16
2022-11-09T19:41:29.877Z,96730.09
2022-11-09T19:44:00.021Z,96742.16
2022-11-09T19:46:30.407Z,96745.38
2022-11-09T19:48:58.395Z,96748.41
2022-11-09T19:51:26.054Z,96746.97
2022-11-09T19:53:55.273Z,96757.69
2022-11-09T19:56:24.467Z,96766.94
2022-11-09T19:58:53.523Z,96769.56
2022-11-09T20:01:23.284Z,96769.56
2022-11-09T20:03:51.947Z,96771.97
2022-11-09T20:06:20.808Z,96772.38
2022-11-09T20:08:48.571Z,96772.94
2022-11-09T20:11:37.660Z,96769.09
2022-11-09T20:14:06.003Z,96777.38
2022-11-09T20:16:36.281Z,96780.38
2022-11-09T20:19:05.375Z,96786.81
2022-11-09T20:21:33.025Z,96782.78
2022-11-09T20:24:00.524Z,96787.59
2022-11-09T20:26:29.180Z,96802.50
2022-11-09T20:28:57.060Z,96796.47
2022-11-09T20:31:25.005Z,96799.88
2022-11-09T20:33:53.874Z,96801.69
2022-11-09T20:36:21.395Z,96802.91
2022-11-09T20:38:49.090Z,96808.13
2022-11-09T20:41:18.691Z,96806.50
2022-11-09T20:43:48.228Z,96814.97
2022-11-09T20:46:17.712Z,96819.03
2022-11-09T20:48:55.005Z,96823.06
2022-11-09T20:51:25.356Z,96824.50
2022-11-09T20:53:53.156Z,96819.88
2022-11-09T20:56:21.631Z,96824.72
2022-11-09T20:58:49.629Z,96833.03
2022-11-09T21:01:18.973Z,96836.44
2022-11-09T21:03:47.669Z,96840.66
2022-11-09T21:06:15.559Z,96837.84
2022-11-09T21:08:47.204Z,96853.00
2022-11-09T21:11:14.955Z,96853.81
2022-11-09T21:13:44.054Z,96855.44
2022-11-09T21:16:13.641Z,96860.69
2022-11-09T21:18:41.747Z,96855.44
2022-11-09T21:21:11.373Z,96861.47
2022-11-09T21:24:11.872Z,96870.16
2022-11-09T21:26:58.303Z,96865.91
2022-11-09T21:29:43.239Z,96865.13
2022-11-09T21:32:12.044Z,96867.53
2022-11-09T21:34:39.801Z,96876.22
2022-11-09T21:37:07.594Z,96869.34
2022-11-09T21:39:35.406Z,96875.38
2022-11-09T21:42:05.329Z,96880.84
2022-11-09T21:44:34.027Z,96887.88
2022-11-09T21:47:02.321Z,96885.25
2022-11-09T21:49:29.835Z,96885.25
2022-11-09T21:51:57.605Z,96887.88
2022-11-09T21:54:25.454Z,96886.28
2022-11-09T21:56:53.965Z,96895.13
2022-11-09T21:59:22.919Z,96891.88
2022-11-09T22:01:50.747Z,96896.13
2022-11-09T22:04:18.658Z,96899.56
2022-11-09T22:06:46.404Z,96900.75
2022-11-09T22:09:16.591Z,96902.75
2022-11-09T22:12:01.783Z,96899.34
2022-11-09T22:14:48.381Z,96902.94
2022-11-09T22:17:16.066Z,96904.94
2022-11-09T22:20:01.245Z,96906.75
2022-11-09T22:22:30.512Z,96908.75
2022-11-09T22:24:58.524Z,96913.03
2022-11-09T22:27:26.066Z,96911.19
2022-11-09T22:29:55.009Z,96912.63
2022-11-09T22:32:22.770Z,96919.50
2022-11-09T22:34:50.313Z,96920.50
2022-11-09T22:37:17.956Z,96925.53
2022-11-09T22:39:47.448Z,96938.84
2022-11-09T22:42:15.358Z,96933.59
2022-11-09T22:44:42.921Z,96940.47
2022-11-09T22:47:11.783Z,96939.44
2022-11-09T22:49:39.323Z,96945.72
2022-11-09T22:52:06.940Z,96944.69
2022-11-09T22:54:34.416Z,96956.81
2022-11-09T22:57:01.928Z,96952.94
2022-11-09T22:59:29.426Z,96954.94
2022-11-09T23:01:57.004Z,96951.72
2022-11-09T23:04:25.988Z,96963.38
2022-11-09T23:06:53.566Z,96966.19
2022-11-09T23:09:21.156Z,96969.00
2022-11-09T23:11:48.700Z,96974.22
2022-11-09T23:14:36.208Z,96972.41
2022-11-09T23:17:23.738Z,96981.28
2022-11-09T23:19:51.621Z,96983.91
2022-11-09T23:22:19.100Z,96983.91
2022-11-09T23:25:04.440Z,96986.53
2022-11-09T23:27:31.922Z,97004.25
2022-11-09T23:29:59.453Z,97002.44
2022-11-09T23:32:27.029Z,97002.63
2022-11-09T23:34:55.926Z,97001.00
2022-11-09T23:37:23.427Z,97001.19
2022-11-09T23:39:51.156Z,97008.41
2022-11-09T23:42:18.640Z,97013.84
2022-11-09T23:44:46.191Z,97018.91
2022-11-09T23:47:13.679Z,97021.69
2022-11-09T23:49:41.207Z,97023.34
2022-11-09T23:52:10.311Z,97023.50
2022-11-09T23:54:37.862Z,97028.94
2022-11-09T23:57:05.491Z,97022.06
2022-11-09T23:59:33.004Z,97024.06
